sensor_id;sensor_type;location;lat;lon;timestamp;P1;durP1;ratioP1;P2;durP2;ratioP2
6537;SDS011;3302;52.508;13.454;2023-05-10T00:00:21;5.83;;;4.10;;
6537;SDS011;3302;52.508;13.454;2023-05-10T00:02:47;4.30;;;3.53;;
6537;SDS011;3302;52.508;13.454;2023-05-10T00:05:13;4.70;;;3.77;;
6537;SDS011;3302;52.508;13.454;2023-05-10T00:07:39;5.20;;;4.00;;
6537;SDS011;3302;52.508;13.454;2023-05-10T00:10:05;5.30;;;4.10;;
6537;SDS011;3302;52.508;13.454;2023-05-10T00:12:31;5.17;;;4.30;;
6537;SDS011;3302;52.508;13.454;2023-05-10T00:14:57;3.67;;;3.33;;
6537;SDS011;3302;52.508;13.454;2023-05-10T00:17:23;4.57;;;4.00;;
6537;SDS011;3302;52.508;13.454;2023-05-10T00:19:48;4.90;;;3.97;;
6537;SDS011;3302;52.508;13.454;2023-05-10T00:22:14;5.03;;;4.40;;
6537;SDS011;3302;52.508;13.454;2023-05-10T00:24:40;6.83;;;4.23;;
6537;SDS011;3302;52.508;13.454;2023-05-10T00:27:06;4.00;;;3.60;;
6537;SDS011;3302;52.508;13.454;2023-05-10T00:29:32;11.93;;;4.47;;
6537;SDS011;3302;52.508;13.454;2023-05-10T00:31:58;5.30;;;4.03;;
6537;SDS011;3302;52.508;13.454;2023-05-10T00:34:24;5.50;;;4.13;;
6537;SDS011;3302;52.508;13.454;2023-05-10T00:36:50;5.87;;;4.37;;
6537;SDS011;3302;52.508;13.454;2023-05-10T00:39:16;5.50;;;4.10;;
6537;SDS011;3302;52.508;13.454;2023-05-10T00:41:42;4.80;;;4.30;;
6537;SDS011;3302;52.508;13.454;2023-05-10T00:44:07;4.73;;;4.20;;
6537;SDS011;3302;52.508;13.454;2023-05-10T00:46:33;6.37;;;3.53;;
6537;SDS011;3302;52.508;13.454;2023-05-10T00:48:59;4.33;;;3.90;;
6537;SDS011;3302;52.508;13.454;2023-05-10T00:51:25;5.70;;;4.00;;
6537;SDS011;3302;52.508;13.454;2023-05-10T00:53:51;5.77;;;3.83;;
6537;SDS011;3302;52.508;13.454;2023-05-10T00:56:17;4.40;;;3.80;;
6537;SDS011;3302;52.508;13.454;2023-05-10T00:58:43;8.87;;;4.03;;
6537;SDS011;3302;52.508;13.454;2023-05-10T01:01:09;4.30;;;3.90;;
6537;SDS011;3302;52.508;13.454;2023-05-10T01:03:36;4.80;;;4.10;;
6537;SDS011;3302;52.508;13.454;2023-05-10T01:06:02;4.47;;;3.97;;
6537;SDS011;3302;52.508;13.454;2023-05-10T01:08:28;6.17;;;3.90;;
6537;SDS011;3302;52.508;13.454;2023-05-10T01:10:54;5.97;;;3.97;;
6537;SDS011;3302;52.508;13.454;2023-05-10T01:13:33;4.40;;;3.80;;
6537;SDS011;3302;52.508;13.454;2023-05-10T01:16:03;5.47;;;4.03;;
6537;SDS011;3302;52.508;13.454;2023-05-10T01:18:30;5.73;;;4.00;;
6537;SDS011;3302;52.508;13.454;2023-05-10T01:21:04;4.47;;;3.83;;
6537;SDS011;3302;52.508;13.454;2023-05-10T01:35:26;5.00;;;4.33;;
6537;SDS011;3302;52.508;13.454;2023-05-10T01:43:30;4.60;;;4.10;;
6537;SDS011;3302;52.508;13.454;2023-05-10T01:46:04;5.73;;;4.30;;
6537;SDS011;3302;52.508;13.454;2023-05-10T01:48:57;4.73;;;3.83;;
6537;SDS011;3302;52.508;13.454;2023-05-10T01:51:25;5.83;;;4.10;;
6537;SDS011;3302;52.508;13.454;2023-05-10T01:53:56;4.90;;;3.80;;
6537;SDS011;3302;52.508;13.454;2023-05-10T01:56:26;4.37;;;3.80;;
6537;SDS011;3302;52.508;13.454;2023-05-10T01:58:53;4.63;;;4.17;;
6537;SDS011;3302;52.508;13.454;2023-05-10T02:01:20;6.23;;;4.57;;
6537;SDS011;3302;52.508;13.454;2023-05-10T02:03:47;5.63;;;4.07;;
6537;SDS011;3302;52.508;13.454;2023-05-10T02:06:16;4.43;;;4.03;;
6537;SDS011;3302;52.508;13.454;2023-05-10T02:08:43;5.33;;;3.93;;
6537;SDS011;3302;52.508;13.454;2023-05-10T02:11:11;4.83;;;3.70;;
6537;SDS011;3302;52.508;13.454;2023-05-10T02:13:39;5.00;;;4.33;;
6537;SDS011;3302;52.508;13.454;2023-05-10T02:16:07;5.30;;;4.10;;
6537;SDS011;3302;52.508;13.454;2023-05-10T02:18:33;4.70;;;4.00;;
6537;SDS011;3302;52.508;13.454;2023-05-10T02:21:01;4.83;;;3.70;;
6537;SDS011;3302;52.508;13.454;2023-05-10T02:23:27;5.03;;;4.13;;
6537;SDS011;3302;52.508;13.454;2023-05-10T02:25:54;6.27;;;4.73;;
6537;SDS011;3302;52.508;13.454;2023-05-10T02:28:23;5.93;;;4.53;;
6537;SDS011;3302;52.508;13.454;2023-05-10T02:30:50;6.57;;;4.67;;
6537;SDS011;3302;52.508;13.454;2023-05-10T02:33:17;4.80;;;4.20;;
6537;SDS011;3302;52.508;13.454;2023-05-10T02:35:45;4.60;;;3.97;;
6537;SDS011;3302;52.508;13.454;2023-05-10T02:38:12;4.33;;;3.83;;
6537;SDS011;3302;52.508;13.454;2023-05-10T02:40:40;4.93;;;4.33;;
6537;SDS011;3302;52.508;13.454;2023-05-10T02:43:09;4.43;;;4.03;;
6537;SDS011;3302;52.508;13.454;2023-05-10T02:45:39;5.83;;;4.30;;
6537;SDS011;3302;52.508;13.454;2023-05-10T02:48:07;5.27;;;3.83;;
6537;SDS011;3302;52.508;13.454;2023-05-10T02:50:33;6.63;;;3.90;;
6537;SDS011;3302;52.508;13.454;2023-05-10T02:53:01;6.90;;;4.03;;
6537;SDS011;3302;52.508;13.454;2023-05-10T02:55:32;5.33;;;4.13;;
6537;SDS011;3302;52.508;13.454;2023-05-10T02:58:03;4.73;;;3.77;;
6537;SDS011;3302;52.508;13.454;2023-05-10T03:00:29;4.80;;;3.87;;
6537;SDS011;3302;52.508;13.454;2023-05-10T03:02:55;5.53;;;3.97;;
6537;SDS011;3302;52.508;13.454;2023-05-10T03:05:20;5.37;;;4.37;;
6537;SDS011;3302;52.508;13.454;2023-05-10T03:07:46;5.17;;;4.13;;
6537;SDS011;3302;52.508;13.454;2023-05-10T03:10:13;4.83;;;4.30;;
6537;SDS011;3302;52.508;13.454;2023-05-10T03:15:47;6.33;;;4.10;;
6537;SDS011;3302;52.508;13.454;2023-05-10T03:18:22;5.17;;;3.97;;
6537;SDS011;3302;52.508;13.454;2023-05-10T03:20:56;6.80;;;4.00;;
6537;SDS011;3302;52.508;13.454;2023-05-10T03:23:34;4.93;;;3.60;;
6537;SDS011;3302;52.508;13.454;2023-05-10T03:26:15;4.20;;;3.63;;
6537;SDS011;3302;52.508;13.454;2023-05-10T03:28:45;6.57;;;3.97;;
6537;SDS011;3302;52.508;13.454;2023-05-10T03:31:13;5.10;;;3.70;;
6537;SDS011;3302;52.508;13.454;2023-05-10T03:33:46;5.60;;;3.67;;
6537;SDS011;3302;52.508;13.454;2023-05-10T03:36:15;4.50;;;3.53;;
6537;SDS011;3302;52.508;13.454;2023-05-10T03:38:41;5.30;;;3.70;;
6537;SDS011;3302;52.508;13.454;2023-05-10T03:41:07;6.13;;;3.80;;
6537;SDS011;3302;52.508;13.454;2023-05-10T03:43:32;4.50;;;3.40;;
6537;SDS011;3302;52.508;13.454;2023-05-10T03:45:58;4.80;;;3.23;;
6537;SDS011;3302;52.508;13.454;2023-05-10T03:48:26;4.23;;;3.67;;
6537;SDS011;3302;52.508;13.454;2023-05-10T03:50:52;7.13;;;3.87;;
6537;SDS011;3302;52.508;13.454;2023-05-10T03:53:17;4.70;;;3.30;;
6537;SDS011;3302;52.508;13.454;2023-05-10T03:55:43;4.40;;;3.80;;
6537;SDS011;3302;52.508;13.454;2023-05-10T03:58:12;6.27;;;3.77;;
6537;SDS011;3302;52.508;13.454;2023-05-10T04:00:38;4.03;;;3.50;;
6537;SDS011;3302;52.508;13.454;2023-05-10T04:03:10;4.27;;;3.47;;
6537;SDS011;3302;52.508;13.454;2023-05-10T04:05:36;5.27;;;3.83;;
6537;SDS011;3302;52.508;13.454;2023-05-10T04:08:02;4.43;;;3.90;;
6537;SDS011;3302;52.508;13.454;2023-05-10T04:10:29;7.30;;;4.20;;
6537;SDS011;3302;52.508;13.454;2023-05-10T04:12:55;8.97;;;3.80;;
6537;SDS011;3302;52.508;13.454;2023-05-10T04:15:20;4.80;;;3.90;;
6537;SDS011;3302;52.508;13.454;2023-05-10T04:17:46;4.17;;;3.50;;
6537;SDS011;3302;52.508;13.454;2023-05-10T04:20:12;4.77;;;3.30;;
6537;SDS011;3302;52.508;13.454;2023-05-10T04:22:38;5.83;;;3.77;;
6537;SDS011;3302;52.508;13.454;2023-05-10T04:25:04;5.80;;;4.33;;
6537;SDS011;3302;52.508;13.454;2023-05-10T04:27:31;5.63;;;3.77;;
6537;SDS011;3302;52.508;13.454;2023-05-10T04:29:57;5.60;;;3.80;;
6537;SDS011;3302;52.508;13.454;2023-05-10T04:32:22;5.07;;;3.40;;
6537;SDS011;3302;52.508;13.454;2023-05-10T04:34:48;5.93;;;3.43;;
6537;SDS011;3302;52.508;13.454;2023-05-10T04:37:15;5.23;;;3.90;;
6537;SDS011;3302;52.508;13.454;2023-05-10T04:39:42;4.80;;;3.80;;
6537;SDS011;3302;52.508;13.454;2023-05-10T04:42:08;5.83;;;3.93;;
6537;SDS011;3302;52.508;13.454;2023-05-10T04:44:34;5.93;;;3.73;;
6537;SDS011;3302;52.508;13.454;2023-05-10T04:47:00;5.57;;;3.43;;
6537;SDS011;3302;52.508;13.454;2023-05-10T04:49:27;5.83;;;3.33;;
6537;SDS011;3302;52.508;13.454;2023-05-10T04:51:53;4.73;;;3.50;;
6537;SDS011;3302;52.508;13.454;2023-05-10T04:54:19;4.03;;;3.20;;
6537;SDS011;3302;52.508;13.454;2023-05-10T04:56:45;4.30;;;3.40;;
6537;SDS011;3302;52.508;13.454;2023-05-10T04:59:10;4.40;;;3.50;;
6537;SDS011;3302;52.508;13.454;2023-05-10T05:01:36;4.90;;;3.63;;
6537;SDS011;3302;52.508;13.454;2023-05-10T05:04:02;3.93;;;3.13;;
6537;SDS011;3302;52.508;13.454;2023-05-10T05:06:28;6.23;;;3.73;;
6537;SDS011;3302;52.508;13.454;2023-05-10T05:08:54;4.50;;;3.40;;
6537;SDS011;3302;52.508;13.454;2023-05-10T05:11:19;5.37;;;3.37;;
6537;SDS011;3302;52.508;13.454;2023-05-10T05:13:46;4.17;;;3.43;;
6537;SDS011;3302;52.508;13.454;2023-05-10T05:16:12;6.23;;;3.13;;
6537;SDS011;3302;52.508;13.454;2023-05-10T05:18:38;5.23;;;3.63;;
6537;SDS011;3302;52.508;13.454;2023-05-10T05:21:12;5.87;;;2.97;;
6537;SDS011;3302;52.508;13.454;2023-05-10T05:23:42;4.37;;;2.83;;
6537;SDS011;3302;52.508;13.454;2023-05-10T05:26:09;6.30;;;3.33;;
6537;SDS011;3302;52.508;13.454;2023-05-10T05:28:35;5.83;;;3.20;;
6537;SDS011;3302;52.508;13.454;2023-05-10T05:31:05;5.67;;;3.30;;
6537;SDS011;3302;52.508;13.454;2023-05-10T05:33:35;3.70;;;2.97;;
6537;SDS011;3302;52.508;13.454;2023-05-10T05:36:01;4.63;;;2.90;;
6537;SDS011;3302;52.508;13.454;2023-05-10T05:38:28;5.63;;;3.23;;
6537;SDS011;3302;52.508;13.454;2023-05-10T05:40:54;4.63;;;3.20;;
6537;SDS011;3302;52.508;13.454;2023-05-10T05:43:20;6.33;;;3.27;;
6537;SDS011;3302;52.508;13.454;2023-05-10T05:45:46;3.20;;;2.90;;
6537;SDS011;3302;52.508;13.454;2023-05-10T05:48:11;5.17;;;2.67;;
6537;SDS011;3302;52.508;13.454;2023-05-10T05:50:37;3.30;;;2.70;;
6537;SDS011;3302;52.508;13.454;2023-05-10T05:53:03;3.70;;;2.63;;
6537;SDS011;3302;52.508;13.454;2023-05-10T05:55:28;7.17;;;3.17;;
6537;SDS011;3302;52.508;13.454;2023-05-10T05:57:56;3.70;;;3.07;;
6537;SDS011;3302;52.508;13.454;2023-05-10T06:00:23;4.33;;;3.13;;
6537;SDS011;3302;52.508;13.454;2023-05-10T06:02:49;7.77;;;3.10;;
6537;SDS011;3302;52.508;13.454;2023-05-10T06:05:15;4.60;;;2.70;;
6537;SDS011;3302;52.508;13.454;2023-05-10T06:07:40;3.63;;;2.63;;
6537;SDS011;3302;52.508;13.454;2023-05-10T06:10:09;4.57;;;2.60;;
6537;SDS011;3302;52.508;13.454;2023-05-10T06:12:35;3.17;;;2.60;;
6537;SDS011;3302;52.508;13.454;2023-05-10T06:15:01;5.20;;;2.77;;
6537;SDS011;3302;52.508;13.454;2023-05-10T06:17:27;7.50;;;2.50;;
6537;SDS011;3302;52.508;13.454;2023-05-10T06:19:53;4.00;;;2.57;;
6537;SDS011;3302;52.508;13.454;2023-05-10T06:22:19;5.13;;;2.40;;
6537;SDS011;3302;52.508;13.454;2023-05-10T06:24:47;4.77;;;2.50;;
6537;SDS011;3302;52.508;13.454;2023-05-10T06:27:14;4.60;;;2.47;;
6537;SDS011;3302;52.508;13.454;2023-05-10T06:29:40;5.03;;;2.27;;
6537;SDS011;3302;52.508;13.454;2023-05-10T06:32:05;5.50;;;2.50;;
6537;SDS011;3302;52.508;13.454;2023-05-10T06:34:31;3.63;;;2.80;;
6537;SDS011;3302;52.508;13.454;2023-05-10T06:36:57;5.30;;;2.30;;
6537;SDS011;3302;52.508;13.454;2023-05-10T06:39:23;3.20;;;2.53;;
6537;SDS011;3302;52.508;13.454;2023-05-10T06:41:49;3.57;;;2.20;;
6537;SDS011;3302;52.508;13.454;2023-05-10T06:44:14;4.57;;;2.33;;
6537;SDS011;3302;52.508;13.454;2023-05-10T06:46:40;3.20;;;2.57;;
6537;SDS011;3302;52.508;13.454;2023-05-10T06:49:06;3.50;;;2.17;;
6537;SDS011;3302;52.508;13.454;2023-05-10T06:51:32;4.20;;;2.40;;
6537;SDS011;3302;52.508;13.454;2023-05-10T06:53:58;4.77;;;2.70;;
6537;SDS011;3302;52.508;13.454;2023-05-10T06:56:25;6.10;;;2.20;;
6537;SDS011;3302;52.508;13.454;2023-05-10T06:58:51;4.77;;;2.20;;
6537;SDS011;3302;52.508;13.454;2023-05-10T07:01:16;4.30;;;2.53;;
6537;SDS011;3302;52.508;13.454;2023-05-10T07:03:42;5.43;;;2.50;;
6537;SDS011;3302;52.508;13.454;2023-05-10T07:06:08;3.97;;;2.47;;
6537;SDS011;3302;52.508;13.454;2023-05-10T07:08:34;2.60;;;2.27;;
6537;SDS011;3302;52.508;13.454;2023-05-10T07:11:03;4.57;;;2.50;;
6537;SDS011;3302;52.508;13.454;2023-05-10T07:13:30;3.87;;;2.30;;
6537;SDS011;3302;52.508;13.454;2023-05-10T07:15:57;3.03;;;2.50;;
6537;SDS011;3302;52.508;13.454;2023-05-10T07:18:23;5.10;;;2.90;;
6537;SDS011;3302;52.508;13.454;2023-05-10T07:20:49;3.67;;;2.30;;
6537;SDS011;3302;52.508;13.454;2023-05-10T07:23:15;2.97;;;2.63;;
6537;SDS011;3302;52.508;13.454;2023-05-10T07:25:46;3.03;;;2.40;;
6537;SDS011;3302;52.508;13.454;2023-05-10T07:28:13;4.93;;;2.60;;
6537;SDS011;3302;52.508;13.454;2023-05-10T07:30:41;6.23;;;2.50;;
6537;SDS011;3302;52.508;13.454;2023-05-10T07:33:08;3.40;;;2.00;;
6537;SDS011;3302;52.508;13.454;2023-05-10T07:35:34;3.20;;;2.40;;
6537;SDS011;3302;52.508;13.454;2023-05-10T07:38:01;3.03;;;2.30;;
6537;SDS011;3302;52.508;13.454;2023-05-10T07:40:27;5.70;;;2.80;;
6537;SDS011;3302;52.508;13.454;2023-05-10T07:42:53;8.30;;;2.67;;
6537;SDS011;3302;52.508;13.454;2023-05-10T07:45:19;2.60;;;2.20;;
6537;SDS011;3302;52.508;13.454;2023-05-10T07:47:45;2.50;;;2.20;;
6537;SDS011;3302;52.508;13.454;2023-05-10T07:50:11;5.47;;;2.70;;
6537;SDS011;3302;52.508;13.454;2023-05-10T07:52:36;4.23;;;2.17;;
6537;SDS011;3302;52.508;13.454;2023-05-10T07:55:02;2.93;;;2.00;;
6537;SDS011;3302;52.508;13.454;2023-05-10T07:57:28;4.90;;;2.97;;
6537;SDS011;3302;52.508;13.454;2023-05-10T07:59:54;2.70;;;2.30;;
6537;SDS011;3302;52.508;13.454;2023-05-10T08:02:20;3.50;;;2.03;;
6537;SDS011;3302;52.508;13.454;2023-05-10T08:04:45;3.70;;;2.03;;
6537;SDS011;3302;52.508;13.454;2023-05-10T08:07:11;6.20;;;2.53;;
6537;SDS011;3302;52.508;13.454;2023-05-10T08:09:37;2.47;;;2.10;;
6537;SDS011;3302;52.508;13.454;2023-05-10T08:12:03;3.80;;;2.40;;
6537;SDS011;3302;52.508;13.454;2023-05-10T08:14:29;3.70;;;2.60;;
6537;SDS011;3302;52.508;13.454;2023-05-10T08:16:55;2.57;;;2.30;;
6537;SDS011;3302;52.508;13.454;2023-05-10T08:19:21;5.30;;;2.20;;
6537;SDS011;3302;52.508;13.454;2023-05-10T08:21:48;3.63;;;2.17;;
6537;SDS011;3302;52.508;13.454;2023-05-10T08:24:13;2.57;;;2.30;;
6537;SDS011;3302;52.508;13.454;2023-05-10T08:26:40;3.50;;;2.30;;
6537;SDS011;3302;52.508;13.454;2023-05-10T08:29:06;4.10;;;2.60;;
6537;SDS011;3302;52.508;13.454;2023-05-10T08:31:31;4.50;;;2.10;;
6537;SDS011;3302;52.508;13.454;2023-05-10T08:33:57;4.80;;;2.20;;
6537;SDS011;3302;52.508;13.454;2023-05-10T08:36:23;4.17;;;2.53;;
6537;SDS011;3302;52.508;13.454;2023-05-10T08:38:52;4.20;;;2.30;;
6537;SDS011;3302;52.508;13.454;2023-05-10T08:41:20;4.77;;;2.20;;
6537;SDS011;3302;52.508;13.454;2023-05-10T08:43:46;4.63;;;2.50;;
6537;SDS011;3302;52.508;13.454;2023-05-10T08:46:16;2.90;;;2.30;;
6537;SDS011;3302;52.508;13.454;2023-05-10T08:48:44;2.53;;;2.30;;
6537;SDS011;3302;52.508;13.454;2023-05-10T08:51:14;6.77;;;2.77;;
6537;SDS011;3302;52.508;13.454;2023-05-10T08:53:45;3.53;;;2.50;;
6537;SDS011;3302;52.508;13.454;2023-05-10T08:56:11;4.33;;;2.87;;
6537;SDS011;3302;52.508;13.454;2023-05-10T08:58:37;4.03;;;2.60;;
6537;SDS011;3302;52.508;13.454;2023-05-10T09:01:04;3.13;;;2.10;;
6537;SDS011;3302;52.508;13.454;2023-05-10T09:03:30;3.93;;;2.40;;
6537;SDS011;3302;52.508;13.454;2023-05-10T09:05:57;2.23;;;2.03;;
6537;SDS011;3302;52.508;13.454;2023-05-10T09:08:23;3.57;;;2.50;;
6537;SDS011;3302;52.508;13.454;2023-05-10T09:10:54;3.90;;;2.40;;
6537;SDS011;3302;52.508;13.454;2023-05-10T09:13:21;3.83;;;2.50;;
6537;SDS011;3302;52.508;13.454;2023-05-10T09:15:48;5.53;;;2.50;;
6537;SDS011;3302;52.508;13.454;2023-05-10T09:18:14;3.13;;;2.10;;
6537;SDS011;3302;52.508;13.454;2023-05-10T09:20:40;5.57;;;3.10;;
6537;SDS011;3302;52.508;13.454;2023-05-10T09:23:06;3.90;;;2.60;;
6537;SDS011;3302;52.508;13.454;2023-05-10T09:25:32;4.03;;;2.40;;
6537;SDS011;3302;52.508;13.454;2023-05-10T09:27:58;2.90;;;2.50;;
6537;SDS011;3302;52.508;13.454;2023-05-10T09:30:29;3.80;;;2.30;;
6537;SDS011;3302;52.508;13.454;2023-05-10T09:32:56;6.73;;;2.80;;
6537;SDS011;3302;52.508;13.454;2023-05-10T09:35:24;2.83;;;2.23;;
6537;SDS011;3302;52.508;13.454;2023-05-10T09:37:51;4.47;;;2.40;;
6537;SDS011;3302;52.508;13.454;2023-05-10T09:40:19;2.63;;;2.10;;
6537;SDS011;3302;52.508;13.454;2023-05-10T09:43:03;4.17;;;2.47;;
6537;SDS011;3302;52.508;13.454;2023-05-10T09:45:31;2.70;;;2.33;;
6537;SDS011;3302;52.508;13.454;2023-05-10T09:47:59;2.97;;;2.43;;
6537;SDS011;3302;52.508;13.454;2023-05-10T09:50:27;2.30;;;2.00;;
6537;SDS011;3302;52.508;13.454;2023-05-10T09:55:24;4.30;;;2.60;;
6537;SDS011;3302;52.508;13.454;2023-05-10T09:57:58;3.40;;;2.70;;
6537;SDS011;3302;52.508;13.454;2023-05-10T10:00:25;3.80;;;2.33;;
6537;SDS011;3302;52.508;13.454;2023-05-10T10:02:55;3.87;;;2.20;;
6537;SDS011;3302;52.508;13.454;2023-05-10T10:05:32;5.43;;;2.23;;
6537;SDS011;3302;52.508;13.454;2023-05-10T10:08:00;2.83;;;2.53;;
6537;SDS011;3302;52.508;13.454;2023-05-10T10:10:27;3.63;;;2.10;;
6537;SDS011;3302;52.508;13.454;2023-05-10T10:12:54;4.43;;;2.50;;
6537;SDS011;3302;52.508;13.454;2023-05-10T10:15:20;3.13;;;2.30;;
6537;SDS011;3302;52.508;13.454;2023-05-10T10:17:48;2.40;;;2.10;;
6537;SDS011;3302;52.508;13.454;2023-05-10T10:20:14;3.23;;;2.20;;
6537;SDS011;3302;52.508;13.454;2023-05-10T10:22:41;2.50;;;2.30;;
6537;SDS011;3302;52.508;13.454;2023-05-10T10:25:09;6.27;;;2.60;;
6537;SDS011;3302;52.508;13.454;2023-05-10T10:28:10;4.53;;;2.60;;
6537;SDS011;3302;52.508;13.454;2023-05-10T10:35:50;3.07;;;2.33;;
6537;SDS011;3302;52.508;13.454;2023-05-10T10:38:18;3.67;;;2.33;;
6537;SDS011;3302;52.508;13.454;2023-05-10T10:40:44;3.57;;;2.27;;
6537;SDS011;3302;52.508;13.454;2023-05-10T10:48:40;2.37;;;2.17;;
6537;SDS011;3302;52.508;13.454;2023-05-10T10:51:06;2.40;;;2.20;;
6537;SDS011;3302;52.508;13.454;2023-05-10T10:53:33;2.90;;;2.63;;
6537;SDS011;3302;52.508;13.454;2023-05-10T10:56:04;4.67;;;2.73;;
6537;SDS011;3302;52.508;13.454;2023-05-10T10:58:35;6.60;;;2.30;;
6537;SDS011;3302;52.508;13.454;2023-05-10T11:01:11;3.77;;;2.80;;
6537;SDS011;3302;52.508;13.454;2023-05-10T11:04:16;5.40;;;2.47;;
6537;SDS011;3302;52.508;13.454;2023-05-10T11:06:30;4.03;;;2.40;;
6537;SDS011;3302;52.508;13.454;2023-05-10T11:09:07;2.57;;;2.10;;
6537;SDS011;3302;52.508;13.454;2023-05-10T11:11:34;2.67;;;2.20;;
6537;SDS011;3302;52.508;13.454;2023-05-10T11:14:04;2.30;;;2.10;;
6537;SDS011;3302;52.508;13.454;2023-05-10T11:16:44;3.27;;;2.50;;
6537;SDS011;3302;52.508;13.454;2023-05-10T11:19:11;4.03;;;2.33;;
6537;SDS011;3302;52.508;13.454;2023-05-10T11:21:51;5.83;;;2.40;;
6537;SDS011;3302;52.508;13.454;2023-05-10T11:24:29;4.10;;;2.87;;
6537;SDS011;3302;52.508;13.454;2023-05-10T11:26:56;3.23;;;2.47;;
6537;SDS011;3302;52.508;13.454;2023-05-10T11:29:22;4.70;;;2.50;;
6537;SDS011;3302;52.508;13.454;2023-05-10T11:31:48;4.20;;;2.10;;
6537;SDS011;3302;52.508;13.454;2023-05-10T11:34:26;2.30;;;2.07;;
6537;SDS011;3302;52.508;13.454;2023-05-10T11:36:55;2.50;;;2.30;;
6537;SDS011;3302;52.508;13.454;2023-05-10T11:39:25;3.33;;;2.43;;
6537;SDS011;3302;52.508;13.454;2023-05-10T11:41:56;3.45;;;1.90;;
6537;SDS011;3302;52.508;13.454;2023-05-10T11:44:22;3.83;;;2.83;;
6537;SDS011;3302;52.508;13.454;2023-05-10T11:46:48;5.60;;;2.10;;
6537;SDS011;3302;52.508;13.454;2023-05-10T11:49:14;4.60;;;2.60;;
6537;SDS011;3302;52.508;13.454;2023-05-10T11:51:40;3.63;;;1.90;;
6537;SDS011;3302;52.508;13.454;2023-05-10T11:54:11;4.03;;;2.45;;
6537;SDS011;3302;52.508;13.454;2023-05-10T11:56:38;4.10;;;2.20;;
6537;SDS011;3302;52.508;13.454;2023-05-10T11:59:05;3.43;;;2.50;;
6537;SDS011;3302;52.508;13.454;2023-05-10T12:01:30;6.80;;;2.60;;
6537;SDS011;3302;52.508;13.454;2023-05-10T12:03:57;4.70;;;3.27;;
6537;SDS011;3302;52.508;13.454;2023-05-10T12:06:26;5.77;;;2.67;;
6537;SDS011;3302;52.508;13.454;2023-05-10T12:08:53;3.30;;;2.30;;
6537;SDS011;3302;52.508;13.454;2023-05-10T12:11:19;6.93;;;2.53;;
6537;SDS011;3302;52.508;13.454;2023-05-10T12:13:49;3.10;;;2.17;;
6537;SDS011;3302;52.508;13.454;2023-05-10T12:16:20;3.20;;;2.27;;
6537;SDS011;3302;52.508;13.454;2023-05-10T12:18:50;4.80;;;2.70;;
6537;SDS011;3302;52.508;13.454;2023-05-10T12:21:20;7.07;;;2.20;;
6537;SDS011;3302;52.508;13.454;2023-05-10T12:23:48;3.73;;;1.97;;
6537;SDS011;3302;52.508;13.454;2023-05-10T12:26:18;2.60;;;2.00;;
6537;SDS011;3302;52.508;13.454;2023-05-10T12:28:47;5.87;;;2.37;;
6537;SDS011;3302;52.508;13.454;2023-05-10T12:31:13;3.80;;;2.13;;
6537;SDS011;3302;52.508;13.454;2023-05-10T12:33:42;3.23;;;2.00;;
6537;SDS011;3302;52.508;13.454;2023-05-10T12:36:09;7.80;;;2.60;;
6537;SDS011;3302;52.508;13.454;2023-05-10T12:38:37;5.90;;;2.30;;
6537;SDS011;3302;52.508;13.454;2023-05-10T12:41:11;5.10;;;2.17;;
6537;SDS011;3302;52.508;13.454;2023-05-10T12:43:38;3.60;;;2.30;;
6537;SDS011;3302;52.508;13.454;2023-05-10T12:46:13;3.53;;;2.40;;
6537;SDS011;3302;52.508;13.454;2023-05-10T12:48:41;3.60;;;2.40;;
6537;SDS011;3302;52.508;13.454;2023-05-10T12:51:08;4.80;;;2.30;;
6537;SDS011;3302;52.508;13.454;2023-05-10T12:53:37;4.40;;;2.00;;
6537;SDS011;3302;52.508;13.454;2023-05-10T12:56:03;3.83;;;2.13;;
6537;SDS011;3302;52.508;13.454;2023-05-10T12:58:30;3.67;;;2.27;;
6537;SDS011;3302;52.508;13.454;2023-05-10T13:00:57;3.83;;;2.30;;
6537;SDS011;3302;52.508;13.454;2023-05-10T13:03:24;2.97;;;2.10;;
6537;SDS011;3302;52.508;13.454;2023-05-10T13:05:49;3.33;;;2.00;;
6537;SDS011;3302;52.508;13.454;2023-05-10T13:08:15;4.77;;;2.10;;
6537;SDS011;3302;52.508;13.454;2023-05-10T13:10:41;5.97;;;2.60;;
6537;SDS011;3302;52.508;13.454;2023-05-10T13:13:07;2.90;;;2.23;;
6537;SDS011;3302;52.508;13.454;2023-05-10T13:15:33;3.10;;;2.10;;
6537;SDS011;3302;52.508;13.454;2023-05-10T13:18:00;2.23;;;1.80;;
6537;SDS011;3302;52.508;13.454;2023-05-10T13:20:26;3.43;;;2.27;;
6537;SDS011;3302;52.508;13.454;2023-05-10T13:22:52;2.47;;;1.90;;
6537;SDS011;3302;52.508;13.454;2023-05-10T13:25:18;3.17;;;2.50;;
6537;SDS011;3302;52.508;13.454;2023-05-10T13:27:44;4.27;;;2.20;;
6537;SDS011;3302;52.508;13.454;2023-05-10T13:30:10;2.60;;;2.30;;
6537;SDS011;3302;52.508;13.454;2023-05-10T13:32:36;4.40;;;2.20;;
6537;SDS011;3302;52.508;13.454;2023-05-10T13:35:02;4.00;;;2.30;;
6537;SDS011;3302;52.508;13.454;2023-05-10T13:37:29;3.70;;;2.47;;
6537;SDS011;3302;52.508;13.454;2023-05-10T13:39:55;4.95;;;2.75;;
6537;SDS011;3302;52.508;13.454;2023-05-10T13:42:24;5.37;;;2.37;;
6537;SDS011;3302;52.508;13.454;2023-05-10T13:44:50;3.83;;;2.60;;
6537;SDS011;3302;52.508;13.454;2023-05-10T13:47:16;4.25;;;2.20;;
6537;SDS011;3302;52.508;13.454;2023-05-10T13:49:42;4.00;;;2.60;;
6537;SDS011;3302;52.508;13.454;2023-05-10T13:52:07;3.38;;;2.35;;
6537;SDS011;3302;52.508;13.454;2023-05-10T13:54:37;2.80;;;2.20;;
6537;SDS011;3302;52.508;13.454;2023-05-10T13:57:04;4.35;;;2.22;;
6537;SDS011;3302;52.508;13.454;2023-05-10T13:59:31;2.47;;;2.00;;
6537;SDS011;3302;52.508;13.454;2023-05-10T14:01:58;4.25;;;2.13;;
6537;SDS011;3302;52.508;13.454;2023-05-10T14:04:24;2.95;;;2.17;;
6537;SDS011;3302;52.508;13.454;2023-05-10T14:06:50;6.57;;;2.87;;
6537;SDS011;3302;52.508;13.454;2023-05-10T14:09:17;2.95;;;2.30;;
6537;SDS011;3302;52.508;13.454;2023-05-10T14:11:44;2.50;;;2.27;;
6537;SDS011;3302;52.508;13.454;2023-05-10T14:14:10;3.55;;;2.20;;
6537;SDS011;3302;52.508;13.454;2023-05-10T14:16:37;3.87;;;2.20;;
6537;SDS011;3302;52.508;13.454;2023-05-10T14:19:03;3.15;;;2.20;;
6537;SDS011;3302;52.508;13.454;2023-05-10T14:21:29;2.65;;;1.73;;
6537;SDS011;3302;52.508;13.454;2023-05-10T14:23:55;2.37;;;1.93;;
6537;SDS011;3302;52.508;13.454;2023-05-10T14:26:21;3.40;;;2.30;;
6537;SDS011;3302;52.508;13.454;2023-05-10T14:28:47;2.83;;;2.33;;
6537;SDS011;3302;52.508;13.454;2023-05-10T14:31:13;3.33;;;2.40;;
6537;SDS011;3302;52.508;13.454;2023-05-10T14:33:40;2.90;;;2.30;;
6537;SDS011;3302;52.508;13.454;2023-05-10T14:36:06;6.13;;;2.50;;
6537;SDS011;3302;52.508;13.454;2023-05-10T14:38:32;3.58;;;2.35;;
6537;SDS011;3302;52.508;13.454;2023-05-10T14:40:58;2.30;;;2.10;;
6537;SDS011;3302;52.508;13.454;2023-05-10T14:43:24;2.25;;;2.05;;
6537;SDS011;3302;52.508;13.454;2023-05-10T14:45:50;2.95;;;2.13;;
6537;SDS011;3302;52.508;13.454;2023-05-10T14:48:15;3.10;;;2.10;;
6537;SDS011;3302;52.508;13.454;2023-05-10T14:50:43;2.15;;;1.95;;
6537;SDS011;3302;52.508;13.454;2023-05-10T14:53:09;3.20;;;2.45;;
6537;SDS011;3302;52.508;13.454;2023-05-10T14:55:35;2.80;;;2.22;;
6537;SDS011;3302;52.508;13.454;2023-05-10T14:58:04;4.85;;;2.42;;
6537;SDS011;3302;52.508;13.454;2023-05-10T15:00:30;2.67;;;2.25;;
6537;SDS011;3302;52.508;13.454;2023-05-10T15:02:56;5.75;;;2.40;;
6537;SDS011;3302;52.508;13.454;2023-05-10T15:05:22;4.18;;;2.15;;
6537;SDS011;3302;52.508;13.454;2023-05-10T15:07:48;2.88;;;2.00;;
6537;SDS011;3302;52.508;13.454;2023-05-10T15:10:15;3.10;;;2.20;;
6537;SDS011;3302;52.508;13.454;2023-05-10T15:12:41;4.05;;;2.10;;
6537;SDS011;3302;52.508;13.454;2023-05-10T15:15:07;5.75;;;2.28;;
6537;SDS011;3302;52.508;13.454;2023-05-10T15:17:33;4.50;;;2.45;;
6537;SDS011;3302;52.508;13.454;2023-05-10T15:19:59;5.20;;;2.70;;
6537;SDS011;3302;52.508;13.454;2023-05-10T15:22:25;5.35;;;2.60;;
6537;SDS011;3302;52.508;13.454;2023-05-10T15:24:53;4.00;;;2.70;;
6537;SDS011;3302;52.508;13.454;2023-05-10T15:27:20;3.97;;;2.15;;
6537;SDS011;3302;52.508;13.454;2023-05-10T15:29:46;3.53;;;2.28;;
6537;SDS011;3302;52.508;13.454;2023-05-10T15:32:12;4.85;;;2.38;;
6537;SDS011;3302;52.508;13.454;2023-05-10T15:34:37;3.03;;;2.00;;